Time;durP1;ratioP1;P1;durP2;ratioP2;P2;SDS_P1;SDS_P2;PMS_P1;PMS_P2;Temp;Humidity;BMP_temperature;BMP_pressure;BME280_temperature;BME280_humidity;BME280_pressure;Samples;Min_cycle;Max_cycle;Signal;HPM_P1;HPM_P2
2024/03/09 00:00:17;;;;;;;22.50;10.00;;;;;;;2.98;100.00;101226.81;6173366;23;20013;-77
2024/03/09 00:02:48;;;;;;;19.25;10.35;;;;;;;2.96;100.00;101235.97;6146512;23;20231;-74
2024/03/09 00:05:14;;;;;;;19.88;10.40;;;;;;;2.95;100.00;101232.50;6147888;23;20075;-74
2024/03/09 00:07:40;;;;;;;19.63;10.10;;;;;;;2.90;100.00;101234.94;6122191;23;20008;-73
2024/03/09 00:10:06;;;;;;;19.02;10.18;;;;;;;2.91;100.00;101233.97;6144518;23;20009;-77
2024/03/09 00:12:33;;;;;;;17.35;9.68;;;;;;;2.90;100.00;101250.00;6146968;23;20096;-74
2024/03/09 00:15:03;;;;;;;19.10;10.80;;;;;;;2.86;100.00;101241.69;6122577;23;20024;-74
2024/03/09 00:17:29;;;;;;;18.30;10.77;;;;;;;2.87;100.00;101237.22;6122774;23;20084;-75
2024/03/09 00:19:59;;;;;;;16.70;9.82;;;;;;;2.85;100.00;101239.25;6121594;23;20021;-75
2024/03/09 00:22:28;;;;;;;19.55;10.65;;;;;;;2.83;100.00;101231.50;6125785;23;20420;-77
2024/03/09 00:24:54;;;;;;;22.90;11.15;;;;;;;2.80;100.00;101231.94;6100334;23;20300;-75
2024/03/09 00:27:24;;;;;;;21.73;10.77;;;;;;;2.80;100.00;101228.47;6124654;23;20048;-75
2024/03/09 00:29:55;;;;;;;17.08;10.20;;;;;;;2.73;100.00;101226.66;6175929;23;20009;-76
2024/03/09 00:32:22;;;;;;;18.45;11.23;;;;;;;2.75;100.00;101234.38;6124578;23;20020;-75
2024/03/09 00:34:47;;;;;;;;;;;;;;;2.75;100.00;101231.72;6126633;23;20112;-75
2024/03/09 00:37:13;;;;;;;20.27;10.68;;;;;;;2.73;100.00;101231.13;6176079;23;19987;-74
2024/03/09 00:39:42;;;;;;;16.80;9.50;;;;;;;2.74;100.00;101225.63;6152433;23;20013;-76
2024/03/09 00:42:09;;;;;;;19.80;10.93;;;;;;;2.73;100.00;101223.19;6080037;23;20071;-74
2024/03/09 00:44:35;;;;;;;17.90;10.10;;;;;;;2.71;100.00;101219.97;6127375;23;20016;-77
2024/03/09 00:47:01;;;;;;;18.48;9.75;;;;;;;2.70;100.00;101219.13;6127195;23;20386;-75
2024/03/09 00:49:30;;;;;;;21.58;10.75;;;;;;;2.67;100.00;101210.78;6103499;23;20466;-75
2024/03/09 00:51:58;;;;;;;18.63;10.07;;;;;;;2.64;100.00;101213.84;6127108;23;20358;-75
2024/03/09 00:54:25;;;;;;;19.55;9.77;;;;;;;2.62;100.00;101202.66;6153307;23;20017;-77
2024/03/09 00:56:54;;;;;;;19.90;10.40;;;;;;;2.61;100.00;101206.31;6156191;23;20020;-75
2024/03/09 00:59:20;;;;;;;18.70;10.02;;;;;;;2.60;100.00;101204.72;6156940;23;20036;-78
2024/03/09 01:01:49;;;;;;;19.48;10.43;;;;;;;2.62;100.00;101202.66;6132179;23;20036;-77
2024/03/09 01:04:15;;;;;;;21.17;11.07;;;;;;;2.61;100.00;101201.03;6157438;23;20009;-76
2024/03/09 01:06:41;;;;;;;20.58;10.45;;;;;;;2.61;100.00;101201.03;6130592;23;20013;-76
2024/03/09 01:09:07;;;;;;;22.33;10.30;;;;;;;2.60;100.00;101184.38;6105898;23;20025;-76
2024/03/09 01:11:33;;;;;;;18.30;10.55;;;;;;;2.56;100.00;101192.91;6157227;23;20405;-75
2024/03/09 01:14:01;;;;;;;22.90;10.75;;;;;;;2.51;100.00;101187.41;6157365;23;20422;-76
2024/03/09 01:16:27;;;;;;;21.98;10.90;;;;;;;2.50;100.00;101188.44;6107766;23;20009;-77
2024/03/09 01:18:52;;;;;;;20.30;10.35;;;;;;;2.47;100.00;101179.91;6156466;23;20009;-75
2024/03/09 01:21:19;;;;;;;19.10;10.05;;;;;;;2.47;100.00;101176.44;6128603;23;20024;-78
2024/03/09 01:23:45;;;;;;;20.23;10.55;;;;;;;2.45;100.00;101175.84;6153628;23;20051;-76
2024/03/09 01:26:11;;;;;;;20.20;10.73;;;;;;;2.44;100.00;101171.59;6153094;23;20028;-77
2024/03/09 01:28:37;;;;;;;20.60;10.00;;;;;;;2.41;100.00;101170.16;6155456;23;20021;-77
2024/03/09 01:31:04;;;;;;;20.10;10.88;;;;;;;2.39;100.00;101171.38;6155187;23;20013;-76
2024/03/09 01:33:33;;;;;;;21.15;10.30;;;;;;;2.39;100.00;101166.91;6154511;23;20067;-77
2024/03/09 01:35:59;;;;;;;23.00;11.20;;;;;;;2.37;100.00;101163.66;6151523;23;20009;-76
2024/03/09 01:38:25;;;;;;;23.73;10.65;;;;;;;2.38;100.00;101164.47;6125564;23;20023;-74
2024/03/09 01:40:51;;;;;;;19.20;11.38;;;;;;;2.36;100.00;101162.00;6177589;23;20013;-77
2024/03/09 01:43:20;;;;;;;19.73;10.45;;;;;;;2.37;100.00;101165.47;6105939;23;20071;-75
2024/03/09 01:45:47;;;;;;;19.73;9.98;;;;;;;2.33;100.00;101154.50;6178093;23;20009;-75
2024/03/09 01:48:14;;;;;;;20.70;10.75;;;;;;;2.34;100.00;101157.97;6125566;23;20028;-74
2024/03/09 01:50:43;;;;;;;23.73;12.15;;;;;;;2.32;100.00;101149.44;6179256;23;20105;-76
2024/03/09 01:53:09;;;;;;;25.55;12.07;;;;;;;2.30;100.00;101157.53;6100625;23;20171;-77
2024/03/09 01:55:37;;;;;;;20.80;10.07;;;;;;;2.31;100.00;101156.53;6101904;23;20017;-77
2024/03/09 01:58:05;;;;;;;22.55;11.23;;;;;;;2.27;100.00;101163.25;6126137;23;20017;-77
2024/03/09 02:00:34;;;;;;;22.55;12.13;;;;;;;2.28;100.00;101154.28;6127453;23;20019;-77
2024/03/09 02:03:00;;;;;;;23.35;11.57;;;;;;;2.25;100.00;101152.06;6124169;23;20015;-76
2024/03/09 02:05:26;;;;;;;20.75;11.15;;;;;;;2.23;100.00;101146.16;6126325;23;20351;-76
2024/03/09 02:07:52;;;;;;;21.48;10.98;;;;;;;2.19;100.00;101139.69;6126247;23;20052;-77
2024/03/09 02:10:19;;;;;;;20.73;10.90;;;;;;;2.18;100.00;101143.34;6126047;23;20016;-76
2024/03/09 02:12:45;;;;;;;21.35;10.90;;;;;;;2.14;100.00;101136.81;6124797;23;20029;-77
2024/03/09 02:15:20;;;;;;;21.20;10.77;;;;;;;2.07;100.00;101125.44;6148687;23;20040;-76
2024/03/09 02:17:57;;;;;;;19.98;10.88;;;;;;;2.04;100.00;101125.88;6124523;23;20537;-76
2024/03/09 02:20:25;;;;;;;22.63;12.02;;;;;;;2.01;100.00;101129.72;6150830;23;20131;-77
2024/03/09 02:22:53;;;;;;;20.23;11.18;;;;;;;1.98;100.00;101126.69;6124482;23;20017;-77
2024/03/09 02:25:21;;;;;;;20.35;11.65;;;;;;;1.96;100.00;101129.50;6150173;23;20474;-78
2024/03/09 02:27:47;;;;;;;20.83;11.73;;;;;;;1.94;100.00;101122.81;6126446;23;20013;-77
2024/03/09 02:30:13;;;;;;;24.02;12.25;;;;;;;1.94;100.00;101109.59;6150768;23;20100;-78
2024/03/09 02:32:42;;;;;;;25.25;11.93;;;;;;;1.90;100.00;101114.50;6151055;23;20398;-76
2024/03/09 02:35:08;;;;;;;24.23;11.60;;;;;;;1.94;100.00;101112.25;6100133;23;20481;-77
2024/03/09 02:37:34;;;;;;;;;;;;;;;1.90;100.00;101109.22;6125060;23;20021;-78
2024/03/09 02:40:03;;;;;;;21.40;11.80;;;;;;;1.88;100.00;101098.81;6125558;23;19916;-77
2024/03/09 02:42:31;;;;;;;24.67;11.55;;;;;;;1.85;100.00;101099.25;6150482;23;20359;-77
2024/03/09 02:44:57;;;;;;;24.42;11.50;;;;;;;1.82;100.00;101096.19;6175203;23;20013;-77
2024/03/09 02:47:23;;;;;;;22.30;11.68;;;;;;;1.81;100.00;101095.38;6098894;23;20021;-78
2024/03/09 02:49:49;;;;;;;22.85;12.05;;;;;;;1.77;100.00;101088.88;6102450;23;20845;-78
2024/03/09 02:52:20;;;;;;;21.10;11.35;;;;;;;1.74;100.00;101084.00;6149689;23;20534;-78
2024/03/09 02:54:46;;;;;;;22.20;11.85;;;;;;;1.69;100.00;101091.72;6150081;23;20044;-78
2024/03/09 02:57:16;;;;;;;21.58;11.35;;;;;;;1.69;100.00;101081.16;6098932;23;20079;-78
2024/03/09 02:59:43;;;;;;;19.92;11.25;;;;;;;1.66;100.00;101091.31;6127624;23;20080;-77
2024/03/09 03:04:54;;;;;;;23.25;11.57;;;;;;;1.62;100.00;101085.63;6126191;23;20028;-78
2024/03/09 03:07:19;;;;;;;22.27;11.32;;;;;;;1.58;100.00;101092.31;6148097;23;20112;-77
2024/03/09 03:09:50;;;;;;;20.85;11.35;;;;;;;1.59;100.00;101081.56;6152182;23;20025;-78
2024/03/09 03:12:16;;;;;;;21.90;11.45;;;;;;;1.58;100.00;101085.22;6125499;23;20020;-78
2024/03/09 03:14:43;;;;;;;21.90;12.15;;;;;;;1.56;100.00;101075.88;6150275;23;20013;-78
2024/03/09 03:17:12;;;;;;;20.63;11.40;;;;;;;1.53;100.00;101084.19;6146850;23;20052;-78
2024/03/09 03:19:38;;;;;;;27.38;12.10;;;;;;;1.51;100.00;101078.31;6126057;23;20021;-76
2024/03/09 03:22:05;;;;;;;24.08;12.40;;;;;;;1.45;100.00;101066.72;6149364;23;20017;-76
2024/03/09 03:24:34;;;;;;;23.60;12.95;;;;;;;1.42;100.00;101066.31;6125946;23;20463;-77
2024/03/09 03:26:59;;;;;;;23.55;12.55;;;;;;;1.39;100.00;101069.34;6175850;23;20017;-78
2024/03/09 03:29:27;;;;;;;24.33;12.65;;;;;;;1.39;100.00;101066.72;6177215;23;20035;-76
2024/03/09 03:31:55;;;;;;;22.48;11.82;;;;;;;1.37;100.00;101064.28;6176938;23;20008;-78
2024/03/09 03:34:21;;;;;;;21.20;10.73;;;;;;;1.34;100.00;101068.13;6150546;23;20016;-76
2024/03/09 03:36:47;;;;;;;;;;;;;;;1.31;100.00;101065.91;6129344;23;20024;-76
2024/03/09 03:39:13;;;;;;;24.90;11.82;;;;;;;1.29;100.00;101065.28;6128503;23;19912;-75
2024/03/09 03:41:39;;;;;;;24.08;12.95;;;;;;;1.28;100.00;101068.91;6129470;23;20025;-76
2024/03/09 03:44:05;;;;;;;26.40;12.80;;;;;;;1.29;100.00;101067.13;6128520;23;20017;-76
2024/03/09 03:46:31;;;;;;;23.20;12.07;;;;;;;1.28;100.00;101058.38;6104152;23;20075;-76
2024/03/09 03:48:57;;;;;;;25.73;13.63;;;;;;;1.27;100.00;101063.84;6152152;23;20095;-76
2024/03/09 03:51:23;;;;;;;23.42;12.00;;;;;;;1.28;100.00;101061.00;6152464;23;20013;-76
2024/03/09 03:53:48;;;;;;;23.77;12.52;;;;;;;1.27;100.00;101061.22;6151850;23;20021;-76
2024/03/09 03:56:14;;;;;;;21.70;12.30;;;;;;;1.23;100.00;101066.09;6126501;23;20024;-76
2024/03/09 03:58:47;;;;;;;23.23;11.77;;;;;;;1.25;100.00;101058.78;6128531;23;20020;-75
2024/03/09 04:01:13;;;;;;;25.58;12.05;;;;;;;1.24;100.00;101057.16;6152737;23;20017;-76
2024/03/09 04:03:38;;;;;;;22.98;12.18;;;;;;;1.21;100.00;101052.25;6127737;23;20016;-75
2024/03/09 04:06:07;;;;;;;25.40;13.52;;;;;;;1.18;100.00;101057.94;6150695;23;20397;-76
2024/03/09 04:08:32;;;;;;;27.75;13.45;;;;;;;1.20;100.00;101055.91;6151618;23;20013;-76
2024/03/09 04:10:59;;;;;;;22.50;12.65;;;;;;;1.20;100.00;101050.63;6151800;23;20350;-75
2024/03/09 04:13:25;;;;;;;25.73;13.40;;;;;;;1.17;100.00;101040.50;6103803;23;20021;-76
2024/03/09 04:15:52;;;;;;;23.02;13.00;;;;;;;1.14;100.00;101051.44;6153064;23;20091;-74
2024/03/09 04:18:18;;;;;;;24.92;13.30;;;;;;;1.12;100.00;101036.84;6127506;23;20012;-75
2024/03/09 04:20:44;;;;;;;22.23;12.02;;;;;;;1.08;100.00;101044.31;6127133;23;20013;-77
2024/03/09 04:23:15;;;;;;;26.95;14.48;;;;;;;1.04;100.00;101030.72;6101704;23;20328;-76
2024/03/09 04:25:46;;;;;;;26.80;12.63;;;;;;;1.02;100.00;101031.97;6101789;23;20450;-76
2024/03/09 04:28:16;;;;;;;25.92;13.27;;;;;;;1.00;100.00;101020.78;6126286;23;20048;-77
2024/03/09 04:30:42;;;;;;;27.38;13.40;;;;;;;1.01;100.00;101025.84;6151998;23;20009;-77
2024/03/09 04:33:10;;;;;;;;;;;;;;;0.95;100.00;101031.09;6151909;23;20121;-76
2024/03/09 04:35:41;;;;;;;24.83;13.05;;;;;;;0.93;100.00;101028.66;6127946;23;19939;-76
2024/03/09 04:38:07;;;;;;;23.77;12.95;;;;;;;0.93;100.00;101012.03;6102598;23;20040;-77
2024/03/09 04:40:37;;;;;;;28.50;13.60;;;;;;;0.88;100.00;101027.63;6079316;23;20045;-76
2024/03/09 04:43:04;;;;;;;26.65;13.35;;;;;;;0.89;100.00;101024.00;6125616;23;20450;-76
2024/03/09 04:45:34;;;;;;;27.85;13.35;;;;;;;0.84;100.00;101014.03;6128422;23;20243;-76
2024/03/09 04:48:01;;;;;;;26.38;13.48;;;;;;;0.79;100.00;101008.56;6152003;23;20024;-76
2024/03/09 04:50:28;;;;;;;28.40;14.30;;;;;;;0.78;100.00;101006.94;6178283;23;20559;-77
2024/03/09 04:52:58;;;;;;;25.77;13.15;;;;;;;0.75;100.00;101000.25;6127122;23;20016;-76
2024/03/09 04:55:27;;;;;;;24.73;12.77;;;;;;;0.74;100.00;101006.50;6177433;23;20025;-76
2024/03/09 04:57:58;;;;;;;27.88;13.07;;;;;;;0.72;100.00;100999.81;6127188;23;20127;-77
2024/03/09 05:00:28;;;;;;;25.38;12.90;;;;;;;0.68;100.00;101004.69;6126350;23;20013;-76
2024/03/09 05:02:55;;;;;;;26.30;14.25;;;;;;;0.70;100.00;101005.28;6151815;23;20755;-77
2024/03/09 05:05:21;;;;;;;26.80;13.13;;;;;;;0.71;100.00;100999.00;6126862;23;20028;-77
2024/03/09 05:07:51;;;;;;;27.20;14.88;;;;;;;0.69;100.00;101003.66;6150713;23;20013;-76
2024/03/09 05:10:18;;;;;;;26.13;13.27;;;;;;;0.65;100.00;101006.88;6177405;23;20027;-75
2024/03/09 05:12:50;;;;;;;30.25;14.40;;;;;;;0.61;100.00;100997.75;6102618;23;20020;-77
2024/03/09 05:15:15;;;;;;;25.92;13.98;;;;;;;0.62;100.00;101005.47;6177131;23;20355;-77
2024/03/09 05:17:41;;;;;;;28.88;13.75;;;;;;;0.59;100.00;100994.50;6152447;23;20485;-77
2024/03/09 05:20:28;;;;;;;26.23;14.10;;;;;;;0.56;100.00;100993.06;6150655;23;20447;-77
2024/03/09 05:22:58;;;;;;;27.73;13.82;;;;;;;0.53;100.00;100981.09;6150713;23;20049;-75
2024/03/09 05:25:25;;;;;;;28.70;15.90;;;;;;;0.54;100.00;100987.16;6124231;23;20008;-75
2024/03/09 05:27:51;;;;;;;;;;;;;;;0.54;100.00;100987.16;6149632;23;20103;-74
2024/03/09 05:30:19;;;;;;;28.45;13.77;;;;;;;0.51;100.00;100987.56;6150160;23;20361;-74
2024/03/09 05:32:51;;;;;;;32.00;14.13;;;;;;;0.52;100.00;100978.66;6150671;23;20013;-72
2024/03/09 05:35:17;;;;;;;29.65;14.98;;;;;;;0.52;100.00;100979.47;6128643;23;20065;-72
2024/03/09 05:37:43;;;;;;;29.20;14.52;;;;;;;0.54;100.00;100987.16;6128016;23;20092;-72
2024/03/09 05:40:10;;;;;;;28.13;14.52;;;;;;;0.59;100.00;100989.22;6152273;23;20478;-72
2024/03/09 05:42:37;;;;;;;29.10;14.65;;;;;;;0.62;100.00;100994.13;6151737;23;20355;-73
2024/03/09 05:45:05;;;;;;;30.23;15.00;;;;;;;0.63;100.00;100990.47;6151934;23;20070;-71
2024/03/09 05:47:30;;;;;;;28.25;14.90;;;;;;;0.65;100.00;100991.06;6128126;23;20024;-72
2024/03/09 05:49:56;;;;;;;29.58;14.88;;;;;;;0.69;100.00;100989.69;6151524;23;20021;-73
2024/03/09 05:52:22;;;;;;;31.20;17.17;;;;;;;0.71;100.00;100977.09;6125551;23;20779;-73
2024/03/09 05:54:48;;;;;;;29.08;14.43;;;;;;;0.72;100.00;100979.53;6103759;23;20021;-74
2024/03/09 05:57:15;;;;;;;33.17;15.85;;;;;;;0.74;100.00;100982.78;6155842;23;20434;-72
2024/03/09 05:59:41;;;;;;;28.95;16.02;;;;;;;0.76;100.00;100980.78;6156684;23;20009;-73
2024/03/09 06:02:07;;;;;;;31.63;17.02;;;;;;;0.77;100.00;100981.59;6179126;23;20555;-72
2024/03/09 06:04:34;;;;;;;32.63;15.38;;;;;;;0.78;100.00;100978.75;6151695;23;20117;-74
2024/03/09 06:06:59;;;;;;;31.00;15.52;;;;;;;0.79;100.00;100977.72;6128349;23;20107;-75
2024/03/09 06:09:25;;;;;;;30.92;16.30;;;;;;;0.81;100.00;100978.34;6153238;23;20048;-78
2024/03/09 06:11:51;;;;;;;33.25;16.42;;;;;;;0.86;100.00;100984.84;6149663;23;20024;-75
2024/03/09 06:14:20;;;;;;;31.67;16.20;;;;;;;0.88;100.00;100981.00;6148851;23;20013;-76
2024/03/09 06:16:46;;;;;;;31.35;16.35;;;;;;;0.88;100.00;100980.16;6175637;23;20020;-75
2024/03/09 06:19:13;;;;;;;30.38;15.32;;;;;;;0.89;100.00;100971.28;6124519;23;20025;-74
2024/03/09 06:21:39;;;;;;;31.48;15.43;;;;;;;0.89;100.00;100984.47;6101073;23;20009;-75
2024/03/09 06:24:04;;;;;;;34.03;16.60;;;;;;;0.93;100.00;100972.47;6149664;23;20016;-76
2024/03/09 06:26:31;;;;;;;33.05;15.82;;;;;;;0.98;100.00;100991.16;6176006;23;20013;-79
2024/03/09 06:28:57;;;;;;;35.70;15.98;;;;;;;1.00;100.00;100978.56;6153072;23;20024;-77
2024/03/09 06:31:23;;;;;;;29.20;15.13;;;;;;;1.02;100.00;100987.13;6131542;23;20009;-79
2024/03/09 06:33:49;;;;;;;33.03;16.75;;;;;;;1.04;100.00;100987.72;6131321;23;20150;-80
2024/03/09 06:36:15;;;;;;;35.58;17.05;;;;;;;1.10;100.00;100976.38;6130608;23;20013;-76
2024/03/09 06:38:41;;;;;;;30.75;15.70;;;;;;;1.15;100.00;100978.38;6155573;23;20015;-78
2024/03/09 06:41:09;;;;;;;30.50;14.95;;;;;;;1.17;100.00;100976.38;6152262;23;20013;-83
2024/03/09 06:43:36;;;;;;;32.47;17.10;;;;;;;1.21;100.00;100978.38;6129144;23;20070;-76
2024/03/09 06:46:03;;;;;;;29.02;15.38;;;;;;;1.26;100.00;100986.53;6124531;23;20040;-75
2024/03/09 06:48:29;;;;;;;32.88;16.70;;;;;;;1.34;100.00;100990.78;6151614;23;20017;-77
2024/03/09 06:50:55;;;;;;;30.63;15.93;;;;;;;1.40;100.00;100975.97;6151772;23;20095;-77
2024/03/09 06:53:25;;;;;;;31.25;17.77;;;;;;;1.43;100.00;100980.84;6150560;23;20761;-76
2024/03/09 06:55:51;;;;;;;34.20;17.00;;;;;;;1.47;100.00;100971.50;6151848;23;20040;-75
2024/03/09 06:58:17;;;;;;;31.73;16.73;;;;;;;1.53;100.00;100986.53;6127188;23;20101;-79
2024/03/09 07:00:43;;;;;;;31.77;16.35;;;;;;;1.61;100.00;100979.19;6128005;23;20017;-78
2024/03/09 07:03:09;;;;;;;31.90;16.48;;;;;;;1.65;100.00;100987.53;6150439;23;20020;-77
2024/03/09 07:05:35;;;;;;;34.03;16.42;;;;;;;1.70;100.00;100987.75;6152045;23;20017;-80
2024/03/09 07:08:05;;;;;;;32.05;16.50;;;;;;;1.72;100.00;100984.88;6128088;23;20017;-79
2024/03/09 07:10:33;;;;;;;34.88;17.38;;;;;;;1.77;100.00;100988.53;6126879;23;20057;-72
2024/03/09 07:12:59;;;;;;;32.70;17.52;;;;;;;1.83;100.00;100986.88;6158486;23;20024;-73
2024/03/09 07:15:26;;;;;;;31.83;16.40;;;;;;;1.86;100.00;100976.72;6130342;23;20013;-77
2024/03/09 07:17:56;;;;;;;33.72;17.75;;;;;;;1.95;100.00;100973.88;6154982;23;20021;-75
2024/03/09 07:20:27;;;;;;;32.78;17.23;;;;;;;2.00;100.00;100976.72;6152499;23;20020;-78
2024/03/09 07:22:54;;;;;;;32.28;16.98;;;;;;;2.08;100.00;100976.47;6126571;23;20017;-75
2024/03/09 07:25:25;;;;;;;36.03;19.27;;;;;;;2.14;100.00;100973.00;6175745;23;20009;-75
2024/03/09 07:27:52;;;;;;;32.33;16.63;;;;;;;2.21;100.00;100968.50;6178108;23;20013;-75
2024/03/09 07:30:18;;;;;;;33.42;17.25;;;;;;;2.26;100.00;100968.72;6151548;23;20060;-78
2024/03/09 07:32:48;;;;;;;30.00;16.38;;;;;;;2.31;100.00;100966.25;6149609;23;20024;-76
2024/03/09 07:35:14;;;;;;;29.95;15.60;;;;;;;2.31;100.00;100963.59;6126570;23;20023;-77
2024/03/09 07:37:44;;;;;;;32.55;17.05;;;;;;;2.33;100.00;100958.91;6125790;23;20206;-77
2024/03/09 07:40:11;;;;;;;33.58;16.45;;;;;;;2.41;100.00;100956.03;6151098;23;20475;-75
2024/03/09 07:42:38;;;;;;;33.08;16.58;;;;;;;2.47;100.00;100963.13;6150601;23;20024;-74
2024/03/09 07:45:13;;;;;;;30.35;15.60;;;;;;;2.56;100.00;100957.59;6150768;23;20005;-78
2024/03/09 07:47:44;;;;;;;32.70;16.00;;;;;;;2.66;100.00;100953.47;6154794;23;20020;-75
2024/03/09 07:50:15;;;;;;;33.72;17.48;;;;;;;2.75;100.00;100954.03;6128059;23;20423;-78
2024/03/09 07:52:55;;;;;;;34.72;18.70;;;;;;;2.79;100.00;100955.22;6127398;23;20104;-75
2024/03/09 07:55:23;;;;;;;30.83;16.33;;;;;;;2.86;100.00;100950.72;6175860;23;20046;-77
2024/03/09 07:57:54;;;;;;;31.83;16.05;;;;;;;2.90;100.00;100946.59;6151376;23;20021;-78
2024/03/09 08:00:27;;;;;;;30.75;16.58;;;;;;;2.90;100.00;100941.31;6151172;23;20017;-75
2024/03/09 08:02:54;;;;;;;28.85;15.63;;;;;;;2.87;100.00;100948.88;6150856;23;20482;-74
2024/03/09 08:05:28;;;;;;;29.80;16.73;;;;;;;3.00;100.00;100948.78;6127349;23;20017;-75
2024/03/09 08:07:55;;;;;;;30.30;16.10;;;;;;;3.08;100.00;100937.13;6102747;23;20017;-74
2024/03/09 08:10:24;;;;;;;31.70;16.98;;;;;;;3.13;100.00;100930.16;6126367;23;20013;-74
2024/03/09 08:12:51;;;;;;;31.90;15.80;;;;;;;3.19;100.00;100928.50;6151606;23;20013;-78
2024/03/09 08:15:17;;;;;;;30.85;17.10;;;;;;;3.27;100.00;100929.03;6151077;23;20052;-74
2024/03/09 08:17:43;;;;;;;30.65;17.77;;;;;;;3.37;100.00;100933.00;6125861;23;20485;-74
2024/03/09 08:20:14;;;;;;;30.42;16.02;;;;;;;3.49;100.00;100931.28;6177359;23;20067;-73
2024/03/09 08:22:45;;;;;;;28.75;15.90;;;;;;;3.48;100.00;100935.78;6101117;23;20021;-75
2024/03/09 08:25:15;;;;;;;32.92;17.65;;;;;;;3.61;100.00;100926.09;6178329;23;20024;-74
2024/03/09 08:27:43;;;;;;;27.92;15.65;;;;;;;3.69;100.00;100928.44;6127016;23;20061;-74
2024/03/09 08:30:14;;;;;;;29.65;16.80;;;;;;;3.70;100.00;100927.41;6154172;23;20013;-74
2024/03/09 08:32:45;;;;;;;31.02;16.02;;;;;;;3.73;100.00;100929.63;6156227;23;20012;-74
2024/03/09 08:35:21;;;;;;;29.13;16.73;;;;;;;3.77;100.00;100926.31;6151775;23;20016;-74
2024/03/09 08:37:48;;;;;;;32.10;15.85;;;;;;;3.83;100.00;100912.19;6171142;23;20013;-74
2024/03/09 08:40:19;;;;;;;31.52;16.80;;;;;;;3.92;100.00;100918.00;6127372;23;20017;-73
2024/03/09 08:42:52;;;;;;;32.05;17.65;;;;;;;3.98;100.00;100918.94;6154874;23;20021;-74
2024/03/09 08:45:22;;;;;;;28.77;16.75;;;;;;;4.04;100.00;100916.22;6177618;23;20519;-73
2024/03/09 08:47:51;;;;;;;31.60;17.65;;;;;;;4.14;100.00;100917.56;6149299;23;20021;-74
2024/03/09 08:50:19;;;;;;;30.15;15.98;;;;;;;4.20;100.00;100927.25;6149903;23;20012;-75
2024/03/09 08:52:47;;;;;;;28.80;16.75;;;;;;;4.18;100.00;100916.06;6150882;23;20121;-74
2024/03/09 08:55:14;;;;;;;32.42;18.17;;;;;;;4.28;100.00;100916.38;6177215;23;20027;-75
2024/03/09 08:57:46;;;;;;;27.90;15.82;;;;;;;4.29;100.00;100913.47;6125296;23;20017;-73
2024/03/09 09:00:12;;;;;;;30.63;17.05;;;;;;;4.42;100.00;100907.19;6177773;23;20009;-77
2024/03/09 09:02:38;;;;;;;30.80;17.10;;;;;;;4.53;100.00;100905.59;6150869;23;20017;-76
2024/03/09 09:05:14;;;;;;;35.35;18.02;;;;;;;4.61;100.00;100895.50;6126283;23;20070;-76
2024/03/09 09:07:41;;;;;;;31.10;15.98;;;;;;;4.62;100.00;100891.81;6099282;23;20017;-76
2024/03/09 09:10:10;;;;;;;36.22;18.00;;;;;;;4.74;100.00;100893.69;6150426;23;20017;-78
2024/03/09 09:12:43;;;;;;;26.77;15.27;;;;;;;4.84;100.00;100889.44;6149759;23;20039;-78
2024/03/09 09:15:11;;;;;;;31.42;15.93;;;;;;;4.82;100.00;100891.53;6177558;23;20008;-77
2024/03/09 09:17:37;;;;;;;30.52;17.02;;;;;;;4.87;100.00;100888.16;6125621;23;20103;-74
2024/03/09 09:20:05;;;;;;;27.58;16.25;;;;;;;4.87;100.00;100883.66;6126383;23;20099;-75
2024/03/09 09:22:31;;;;;;;30.55;16.92;;;;;;;4.91;100.00;100884.03;6124677;23;20079;-77
2024/03/09 09:24:57;;;;;;;25.38;14.18;;;;;;;4.98;100.00;100878.63;6102489;23;20104;-79
2024/03/09 09:27:25;;;;;;;28.83;14.77;;;;;;;5.11;100.00;100873.91;6124563;23;20060;-78
2024/03/09 09:29:50;;;;;;;27.40;15.68;;;;;;;5.19;100.00;100875.41;6151671;23;20131;-80
2024/03/09 09:32:17;;;;;;;25.98;14.93;;;;;;;5.23;100.00;100865.16;6149441;23;20448;-76
2024/03/09 09:34:44;;;;;;;29.35;15.68;;;;;;;5.29;100.00;100866.88;6151992;23;20025;-76
2024/03/09 09:37:12;;;;;;;27.75;15.65;;;;;;;5.23;100.00;100870.44;6125622;23;20013;-76
2024/03/09 09:39:38;;;;;;;29.42;14.80;;;;;;;5.31;100.00;100867.44;6125354;23;20055;-77
2024/03/09 09:42:04;;;;;;;27.63;14.70;;;;;;;5.33;100.00;100865.34;6151104;23;20016;-76
2024/03/09 09:44:30;;;;;;;23.08;14.73;;;;;;;5.30;100.00;100860.53;6151484;23;20017;-74
2024/03/09 09:46:56;;;;;;;27.88;15.55;;;;;;;5.35;100.00;100857.97;6125967;23;20020;-79
2024/03/09 09:49:22;;;;;;;;;;;;;;;5.50;100.00;100854.84;6151495;23;20071;-81
2024/03/09 09:51:51;;;;;;;28.98;15.68;;;;;;;5.64;100.00;100846.41;6151728;23;19991;-74
2024/03/09 09:54:29;;;;;;;26.35;15.07;;;;;;;5.73;100.00;100852.94;6152120;23;20040;-75
2024/03/09 09:56:58;;;;;;;26.75;15.35;;;;;;;5.74;100.00;100851.91;6157994;23;20027;-78
2024/03/09 09:59:25;;;;;;;26.55;14.20;;;;;;;5.74;100.00;100843.94;6130039;23;20049;-76
2024/03/09 10:01:51;;;;;;;26.10;15.35;;;;;;;5.82;100.00;100840.09;6129919;23;20025;-74
2024/03/09 10:04:17;;;;;;;29.55;14.73;;;;;;;5.78;100.00;100852.25;6153349;23;20394;-75
2024/03/09 10:06:44;;;;;;;28.50;15.70;;;;;;;5.94;100.00;100842.75;6126944;23;20075;-81
2024/03/09 10:09:10;;;;;;;27.27;15.80;;;;;;;6.01;100.00;100830.13;6127366;23;20027;-75
2024/03/09 10:11:39;;;;;;;28.38;15.20;;;;;;;5.98;100.00;100834.09;6151054;23;20040;-78
2024/03/09 10:14:07;;;;;;;26.52;14.95;;;;;;;6.02;100.00;100834.41;6151372;23;20017;-76
2024/03/09 10:16:39;;;;;;;26.02;15.35;;;;;;;6.05;100.00;100833.94;6125422;23;20604;-81
2024/03/09 10:19:06;;;;;;;24.00;13.77;;;;;;;6.05;100.00;100822.50;6153416;23;20041;-79
2024/03/09 10:21:37;;;;;;;25.35;14.38;;;;;;;6.08;100.00;100820.16;6181412;23;20009;-79
2024/03/09 10:24:05;;;;;;;25.70;14.68;;;;;;;6.24;100.00;100822.06;6182660;23;20489;-77
2024/03/09 10:26:32;;;;;;;24.38;13.57;;;;;;;6.38;100.00;100821.78;6105346;23;20092;-81
2024/03/09 10:28:59;;;;;;;26.55;13.98;;;;;;;6.51;100.00;100824.94;6154386;23;20039;-76
2024/03/09 10:31:26;;;;;;;21.95;13.57;;;;;;;6.54;100.00;100818.31;6153677;23;20088;-78
2024/03/09 10:33:53;;;;;;;26.38;14.68;;;;;;;6.57;100.00;100823.19;6153685;23;20463;-75
2024/03/09 10:36:24;;;;;;;24.50;13.77;;;;;;;6.55;100.00;100814.59;6151909;23;20044;-75
2024/03/09 10:38:51;;;;;;;22.17;13.15;;;;;;;6.59;100.00;100810.44;6129888;23;20016;-78
2024/03/09 10:41:25;;;;;;;22.35;13.27;;;;;;;6.65;100.00;100817.44;6126726;23;20012;-79
2024/03/09 10:43:54;;;;;;;21.60;12.15;;;;;;;6.77;100.00;100806.69;6178544;23;20091;-79
2024/03/09 10:46:28;;;;;;;25.95;14.27;;;;;;;6.84;100.00;100805.50;6176785;23;20009;-81
2024/03/09 10:48:56;;;;;;;25.80;14.68;;;;;;;6.77;100.00;100812.84;6152604;23;20154;-78
2024/03/09 10:51:50;;;;;;;24.70;14.18;;;;;;;6.93;100.00;100807.75;6151065;23;20016;-79
2024/03/09 10:54:45;;;;;;;23.10;13.35;;;;;;;6.89;100.00;100806.63;6151158;23;20012;-78
2024/03/09 10:57:21;;;;;;;24.73;14.38;;;;;;;6.80;100.00;100795.59;6149682;23;20013;-80
2024/03/09 10:59:49;;;;;;;24.10;13.55;;;;;;;6.80;100.00;100796.38;6150754;23;20013;-79
2024/03/09 11:02:17;;;;;;;23.85;13.02;;;;;;;6.98;100.00;100797.19;6150493;23;20013;-80
2024/03/09 11:04:49;;;;;;;20.75;12.95;;;;;;;6.92;100.00;100798.16;6151733;23;20017;-81
2024/03/09 11:07:20;;;;;;;22.95;13.18;;;;;;;6.99;100.00;100788.97;6177234;23;20016;-80
2024/03/09 11:09:51;;;;;;;22.95;13.63;;;;;;;7.31;100.00;100791.78;6151205;23;20005;-79
2024/03/09 11:12:19;;;;;;;22.63;12.90;;;;;;;7.37;100.00;100792.66;6177813;23;20012;-80
2024/03/09 11:14:52;;;;;;;23.23;13.15;;;;;;;7.42;100.00;100792.72;6133114;23;20068;-77
2024/03/09 11:17:21;;;;;;;24.05;13.20;;;;;;;7.57;100.00;100784.09;6129552;23;20019;-78